Terminal Aerodrome Forecast
Issued by NWS

Current Version | Previous Version | Text Only | Print | Product List | Glossary On
Versions: 1 2 3 4 5 6 7 8 9 10 11 12 13 14
773
FTUS41 KLWX 300023 AAA
TAFMTN
TAF AMD
KMTN 300023Z 3000/3024 07006KT P6SM BKN015
     FM300300 11007KT P6SM BKN010
     FM300600 11005KT 3SM BR BKN005
     FM301500 12006KT P6SM OVC010
      AMD NOT SKED 3002/3012=

USA.gov is the U.S. government's official web portal to all federal, state and local government web resources and services.